createdAt,value
2019-04-23T07:54:01.778Z,25.00
2019-04-23T07:56:21.422Z,25.10
2019-04-23T07:58:44.567Z,22.70
2019-04-23T08:01:23.035Z,21.70
2019-04-23T08:03:48.247Z,21.20
2019-04-23T08:06:12.020Z,21.00
2019-04-23T08:13:47.737Z,20.90
2019-04-23T08:16:25.998Z,20.80
2019-04-23T08:18:45.384Z,20.80
2019-04-23T08:21:10.546Z,20.70
2019-04-23T08:23:54.154Z,20.70
2019-04-23T08:26:34.942Z,20.70
2019-04-23T08:31:38.770Z,20.80
2019-04-23T08:34:11.074Z,20.80
2019-04-23T08:36:34.476Z,20.80
2019-04-23T08:38:56.832Z,20.70
2019-04-23T08:44:15.625Z,20.80
2019-04-23T08:47:05.228Z,20.80
2019-04-23T08:49:31.273Z,20.90
2019-04-23T08:52:04.131Z,20.90
2019-04-23T08:54:38.406Z,20.90
2019-04-23T08:56:54.779Z,20.90
2019-04-23T08:59:33.283Z,20.80
2019-04-23T09:02:07.705Z,20.70
2019-04-23T09:04:21.544Z,20.70
2019-04-23T09:06:50.216Z,20.70
2019-04-23T09:09:20.070Z,20.60
2019-04-23T09:11:56.259Z,20.60
2019-04-23T09:14:05.327Z,20.60
2019-04-23T09:16:44.380Z,20.70
2019-04-23T09:21:45.897Z,20.80
2019-04-23T09:24:03.370Z,20.40
2019-04-23T09:26:32.746Z,20.40
2019-04-23T09:29:09.608Z,20.40
2019-04-23T09:34:31.545Z,20.20
2019-04-23T09:36:59.632Z,20.20
2019-04-23T09:39:30.756Z,20.30
2019-04-23T09:42:05.323Z,20.20
2019-04-23T09:47:14.003Z,20.30
2019-04-23T09:49:44.306Z,20.30
2019-04-23T09:52:14.583Z,20.40
2019-04-23T09:54:42.097Z,20.40
2019-04-23T09:56:57.373Z,20.30
2019-04-23T10:01:49.837Z,20.40
2019-04-23T10:04:18.620Z,20.30
2019-04-23T10:06:34.572Z,20.60
2019-04-23T10:09:02.124Z,20.70
2019-04-23T10:11:28.264Z,20.80
2019-04-23T10:13:56.252Z,21.00
2019-04-23T10:16:25.780Z,21.00
2019-04-23T10:18:53.053Z,21.10
2019-04-23T10:21:19.690Z,21.20
2019-04-23T10:23:47.470Z,21.30
2019-04-23T10:26:14.353Z,21.30
2019-04-23T10:28:44.165Z,21.30
2019-04-23T10:31:12.505Z,21.40
2019-04-23T10:33:39.940Z,21.40
2019-04-23T10:36:11.284Z,21.40
2019-04-23T10:38:36.402Z,21.40
2019-04-23T10:41:04.416Z,21.40
2019-04-23T10:43:34.009Z,21.30
2019-04-23T10:46:38.031Z,21.40
2019-04-23T10:52:07.137Z,21.60
2019-04-23T10:54:39.577Z,21.70
2019-04-23T10:56:51.649Z,21.70
2019-04-23T10:59:38.831Z,21.80
2019-04-23T11:02:24.072Z,21.90
2019-04-23T11:04:47.348Z,21.80
2019-04-23T11:09:52.828Z,21.90
2019-04-23T11:12:24.268Z,21.80
2019-04-23T11:14:44.448Z,21.80
2019-04-23T11:17:03.643Z,21.80
2019-04-23T11:19:39.969Z,21.70
2019-04-23T11:22:22.780Z,21.60
2019-04-23T11:27:10.379Z,21.70
2019-04-23T11:29:35.631Z,21.80
2019-04-23T11:32:06.762Z,21.80
2019-04-23T11:34:47.814Z,21.80
2019-04-23T11:37:03.599Z,21.70
2019-04-23T11:39:22.650Z,21.80
2019-04-23T11:41:57.997Z,21.80
2019-04-23T11:44:26.411Z,21.80
2019-04-23T11:49:34.630Z,21.80
2019-04-23T11:51:56.426Z,21.80
2019-04-23T11:57:07.805Z,21.80
2019-04-23T11:59:22.969Z,21.80
2019-04-23T12:01:46.497Z,21.80
2019-04-23T12:04:26.305Z,21.80
2019-04-23T12:07:14.006Z,21.80
2019-04-23T12:09:46.471Z,21.80
2019-04-23T12:12:17.200Z,21.80
2019-04-23T12:17:27.265Z,21.80
2019-04-23T12:25:02.292Z,21.90
2019-04-23T12:37:29.698Z,21.80
2019-04-23T12:40:00.979Z,21.90
2019-04-23T12:42:41.305Z,21.90
2019-04-23T12:45:00.036Z,21.90
2019-04-23T12:47:39.543Z,21.90
2019-04-23T12:50:13.544Z,21.90
2019-04-23T12:52:17.088Z,21.90
2019-04-23T12:55:06.765Z,21.90
2019-04-23T12:59:47.757Z,21.80
2019-04-23T13:02:15.771Z,21.80
2019-04-23T13:04:42.086Z,21.80
2019-04-23T13:07:13.136Z,21.80
2019-04-23T13:09:48.253Z,21.90
2019-04-23T13:12:20.544Z,21.80
2019-04-23T13:14:41.649Z,21.80
2019-04-23T13:17:11.515Z,21.80
2019-04-23T13:19:51.378Z,21.80
2019-04-23T13:22:16.565Z,21.80
2019-04-23T13:27:30.558Z,21.70
2019-04-23T13:29:56.757Z,21.70
2019-04-23T13:32:21.596Z,21.70
2019-04-23T13:34:58.895Z,21.70
2019-04-23T13:37:19.079Z,21.70
2019-04-23T13:39:44.048Z,21.70
2019-04-23T13:42:22.756Z,21.70
2019-04-23T13:44:42.716Z,21.70
2019-04-23T13:47:19.971Z,21.70
2019-04-23T13:49:43.135Z,21.70
2019-04-23T13:52:37.852Z,21.80
2019-04-23T13:54:56.374Z,21.80
2019-04-23T13:57:32.505Z,21.80
2019-04-23T13:59:48.494Z,21.80
2019-04-23T14:02:08.994Z,21.80
2019-04-23T14:04:39.011Z,21.80
2019-04-23T14:07:10.348Z,21.70
2019-04-23T14:12:09.171Z,21.80
2019-04-23T14:14:47.593Z,21.80
2019-04-23T14:17:12.321Z,21.80
2019-04-23T14:19:32.039Z,21.80
2019-04-23T14:22:13.723Z,21.90
2019-04-23T14:24:38.125Z,21.90
2019-04-23T14:26:58.238Z,21.90
2019-04-23T14:29:31.894Z,21.80
2019-04-23T14:32:07.126Z,21.80
2019-04-23T14:34:43.974Z,21.80
2019-04-23T14:36:59.487Z,21.90
2019-04-23T14:41:53.355Z,21.90
2019-04-23T14:44:19.714Z,21.80
2019-04-23T14:49:19.092Z,21.90
2019-04-23T14:51:49.805Z,21.90
2019-04-23T14:54:23.134Z,21.80
2019-04-23T14:56:52.348Z,21.90
2019-04-23T14:59:10.529Z,21.90
2019-04-23T15:01:49.081Z,21.90
2019-04-23T15:04:10.912Z,21.90
2019-04-23T15:06:53.899Z,21.90
2019-04-23T15:11:59.697Z,21.90
2019-04-23T15:14:10.104Z,21.90
2019-04-23T15:16:46.634Z,21.90
2019-04-23T15:28:43.830Z,21.90
2019-04-23T15:31:33.093Z,21.90
2019-04-23T15:36:42.283Z,21.90
2019-04-23T15:39:08.775Z,21.90
2019-04-23T15:49:02.162Z,21.90
2019-04-23T15:51:31.023Z,21.90
2019-04-23T15:53:53.180Z,21.90
2019-04-23T15:56:32.895Z,21.90
2019-04-23T15:58:58.347Z,21.90
2019-04-23T16:03:20.539Z,21.90
2019-04-23T16:05:50.983Z,21.90
2019-04-23T16:08:51.829Z,21.90
2019-04-23T16:11:25.341Z,21.90
2019-04-23T16:14:05.789Z,21.90
2019-04-23T16:16:18.407Z,21.80
2019-04-23T16:19:09.597Z,21.80
2019-04-23T16:21:48.025Z,21.80
2019-04-23T16:24:08.174Z,21.80
2019-04-23T16:26:41.156Z,21.80
2019-04-23T16:31:41.371Z,21.80
2019-04-23T16:34:06.830Z,21.80
2019-04-23T16:36:23.140Z,21.80
2019-04-23T16:38:55.628Z,21.80
2019-04-23T16:43:59.848Z,21.70
2019-04-23T16:46:21.935Z,21.80
2019-04-23T16:51:27.976Z,21.80
2019-04-23T16:53:42.986Z,21.80
2019-04-23T16:58:42.257Z,21.70
2019-04-23T17:03:40.236Z,21.80
2019-04-23T17:06:10.338Z,21.70
2019-04-23T17:08:55.157Z,21.70
2019-04-23T17:11:10.134Z,21.80
2019-04-23T17:13:30.863Z,21.80
2019-04-23T17:16:09.111Z,21.80
2019-04-23T17:18:31.306Z,21.70
2019-04-23T17:20:56.320Z,21.70
2019-04-23T17:25:58.894Z,21.70
2019-04-23T17:28:21.961Z,21.70
2019-04-23T17:31:16.861Z,21.70
2019-04-23T17:33:33.191Z,21.70
2019-04-23T17:36:15.221Z,21.80
2019-04-23T17:38:36.147Z,21.80
2019-04-23T17:41:05.797Z,21.80
2019-04-23T17:43:33.144Z,21.90
2019-04-23T17:45:56.623Z,21.90
2019-04-23T17:48:27.204Z,21.90
2019-04-23T17:51:04.112Z,21.90
2019-04-23T17:53:29.754Z,21.90
2019-04-23T17:56:08.773Z,21.90
2019-04-23T17:58:30.085Z,21.90
2019-04-23T18:03:30.519Z,21.90
2019-04-23T18:06:03.450Z,21.90
2019-04-23T18:08:23.218Z,21.90
2019-04-23T18:10:59.473Z,21.80
2019-04-23T18:13:22.443Z,21.80
2019-04-23T18:15:57.192Z,21.80
2019-04-23T18:18:29.135Z,21.80
2019-04-23T18:21:35.696Z,21.80
2019-04-23T18:24:08.202Z,21.90
2019-04-23T18:26:36.019Z,21.90
2019-04-23T18:29:08.458Z,21.90
2019-04-23T18:31:31.851Z,21.80
2019-04-23T18:36:33.652Z,21.80
2019-04-23T18:41:35.226Z,21.70
2019-04-23T18:44:05.835Z,21.80
2019-04-23T18:48:59.782Z,21.90
2019-04-23T18:51:21.211Z,21.80
2019-04-23T18:54:07.412Z,21.80
2019-04-23T19:01:36.693Z,21.80
2019-04-23T19:09:03.186Z,21.90
2019-04-23T19:11:51.217Z,21.80
2019-04-23T19:16:41.578Z,21.90
2019-04-23T19:19:06.925Z,21.90
2019-04-23T19:21:47.336Z,21.90
2019-04-23T19:23:54.858Z,21.90
2019-04-23T19:26:54.809Z,21.90
2019-04-23T19:28:55.521Z,21.90
2019-04-23T19:31:33.238Z,21.90
2019-04-23T19:34:14.469Z,22.00
2019-04-23T19:36:39.939Z,22.00
2019-04-23T19:39:03.550Z,21.90
2019-04-23T19:41:37.261Z,22.00
2019-04-23T19:44:01.219Z,22.00
2019-04-23T19:46:41.879Z,22.00
2019-04-23T19:49:06.942Z,22.00
2019-04-23T19:51:25.460Z,21.90
2019-04-23T19:54:06.567Z,22.00
2019-04-23T19:58:51.760Z,21.90
2019-04-23T20:03:52.614Z,21.90
2019-04-23T20:06:18.690Z,21.90
2019-04-23T20:09:08.758Z,21.90
2019-04-23T20:11:15.450Z,21.90
2019-04-23T20:13:54.185Z,21.80
2019-04-23T20:16:10.980Z,21.80
2019-04-23T20:23:56.008Z,21.80
2019-04-23T20:32:26.637Z,21.90
2019-04-23T20:34:19.558Z,21.80
2019-04-23T20:36:36.811Z,21.80
2019-04-23T20:38:59.325Z,21.90
2019-04-23T20:41:39.850Z,21.90
2019-04-23T20:43:57.599Z,21.90
2019-04-23T20:46:27.997Z,21.70
2019-04-23T20:48:53.135Z,21.70
2019-04-23T20:51:29.163Z,21.80
2019-04-23T20:58:54.916Z,21.70
2019-04-23T21:01:22.327Z,21.80
2019-04-23T21:06:16.597Z,21.80
2019-04-23T21:09:20.217Z,21.80
2019-04-23T21:11:14.177Z,21.80
2019-04-23T21:16:31.120Z,21.40
2019-04-23T21:18:44.469Z,21.10
2019-04-23T21:21:13.573Z,21.10
2019-04-23T21:23:37.466Z,20.90
2019-04-23T21:25:57.210Z,20.80
2019-04-23T21:28:47.467Z,20.80
2019-04-23T21:33:50.792Z,20.80
2019-04-23T21:39:04.075Z,20.90
2019-04-23T21:41:51.006Z,21.00
2019-04-23T21:44:18.956Z,21.00
2019-04-23T21:46:47.912Z,20.90
2019-04-23T21:49:21.365Z,20.90
2019-04-23T21:51:49.300Z,20.90
2019-04-23T21:54:14.272Z,20.90
2019-04-23T22:06:35.554Z,20.50
2019-04-23T22:21:33.430Z,20.60
2019-04-23T22:24:02.722Z,20.70
2019-04-23T22:26:35.259Z,20.60
2019-04-23T22:29:04.454Z,20.50
2019-04-23T22:31:18.685Z,20.50
2019-04-23T22:33:54.915Z,20.50
2019-04-23T22:36:15.162Z,20.40
2019-04-23T22:38:41.678Z,20.40
2019-04-23T22:41:08.613Z,20.40
2019-04-23T22:43:57.716Z,20.30
2019-04-23T22:46:16.188Z,20.30
2019-04-23T22:48:47.615Z,20.30
2019-04-23T22:51:11.106Z,20.40
2019-04-23T22:53:35.692Z,20.30
2019-04-23T22:56:19.680Z,20.30
2019-04-23T22:58:48.316Z,20.30
2019-04-23T23:04:01.215Z,20.50
2019-04-23T23:06:36.861Z,20.50
2019-04-23T23:09:01.077Z,20.50
2019-04-23T23:11:13.992Z,20.50
2019-04-23T23:14:01.093Z,20.50
2019-04-23T23:16:14.802Z,20.50
2019-04-23T23:18:43.930Z,20.50
2019-04-23T23:23:43.939Z,20.50
2019-04-23T23:26:09.346Z,20.40
2019-04-23T23:28:40.965Z,20.40
2019-04-23T23:31:06.895Z,20.40
2019-04-23T23:33:43.136Z,20.40
2019-04-23T23:36:05.883Z,20.50
2019-04-23T23:46:17.304Z,20.40
2019-04-23T23:48:29.496Z,20.50
2019-04-23T23:51:09.624Z,20.50
2019-04-23T23:53:42.090Z,20.50
2019-04-23T23:56:05.449Z,20.50
2019-04-23T23:58:29.094Z,20.50
